»·PEaware :: ABX2187 KNZY-KEDW

ABX2187 :: KNZY-KEDW

FLIGHT INFORMATION

Flight Status: Arrived
Operator:
Airborne Express
More flights by this operator :: More flights under this callsign
Pilot: Anonymous 3903 (3903)
Aircraft: DEHAVILLAND DASH 8 400
(DH8D)
More flights by this aircraft type
Origin: KNZY North Island NAS
United States
Destination: KEDW Edwards AFB
United States
More flights between these airports :: More routes between these airports
Route: +NASNI8 NASNI MZB V597 BERRI V201 PMD
File this flight plan on PilotEdge
Remarks: ABEX
Altitude:
(Current/Filed)
16,000ft
Speed:
(Current/Filed)
300kts
Departed: 11-Jul-18 01:25 PM
Arrived: 11-Jul-18 02:10 PM
Distance/Time
Traveled:
137nm/0:45
Distance/Time
To Go:
Arrived

Flight Plot

Page will automatically refresh every two minutes.

Flight plan parsing failed; only flown route is shown


Map Options




Map Legend


Flown Route
Filed Route
Departure Airport
Arrival Airport
Navaid (VOR, NDB)
Fix

Horizontal Profiles

Position Reports

Time Latitude Longitude Heading Altitude Ground
Speed
11-Jul-18 12:43 32.698669 -117.204852 28 33ft 0kts
11-Jul-18 12:44 32.698669 -117.204852 28 33ft 0kts
11-Jul-18 12:45 32.698669 -117.204852 28 33ft 0kts
11-Jul-18 12:46 32.698669 -117.204852 28 33ft 0kts
11-Jul-18 12:47 32.698669 -117.204852 28 33ft 0kts
11-Jul-18 12:48 32.698669 -117.204852 28 33ft 0kts
11-Jul-18 12:49 32.698669 -117.204852 28 33ft 0kts
11-Jul-18 12:50 32.698669 -117.204852 28 33ft 0kts
11-Jul-18 12:51 32.698669 -117.204852 28 33ft 0kts
11-Jul-18 12:52 32.698669 -117.204852 28 33ft 0kts
11-Jul-18 12:53 32.698669 -117.204852 28 33ft 0kts
11-Jul-18 12:54 32.698669 -117.204852 28 33ft 0kts
11-Jul-18 12:55 32.698669 -117.204852 28 33ft 0kts
11-Jul-18 12:56 32.698669 -117.204852 28 33ft 0kts
11-Jul-18 12:57 32.698669 -117.204852 28 33ft 0kts
11-Jul-18 12:58 32.698669 -117.204852 28 33ft 0kts
11-Jul-18 12:59 32.698669 -117.204852 28 33ft 0kts
11-Jul-18 13:00 32.698669 -117.204852 28 33ft 0kts
11-Jul-18 13:01 32.698669 -117.204852 28 33ft 0kts
11-Jul-18 13:02 32.698669 -117.204852 28 33ft 0kts
11-Jul-18 13:03 32.698669 -117.204852 28 33ft 0kts
11-Jul-18 13:04 32.698669 -117.204852 28 33ft 0kts
11-Jul-18 13:05 32.698669 -117.204852 28 33ft 0kts
11-Jul-18 13:06 32.698669 -117.204852 28 33ft 0kts
11-Jul-18 13:07 32.698669 -117.204852 28 33ft 0kts
11-Jul-18 13:08 32.698669 -117.204852 28 33ft 0kts
11-Jul-18 13:09 32.698669 -117.204852 28 33ft 0kts
11-Jul-18 13:10 32.698669 -117.204852 28 33ft 0kts
11-Jul-18 13:11 32.698669 -117.204852 28 33ft 0kts
11-Jul-18 13:12 32.698669 -117.204852 28 33ft 0kts
11-Jul-18 13:13 32.698669 -117.204852 28 33ft 0kts
11-Jul-18 13:14 32.698669 -117.204852 28 33ft 0kts
11-Jul-18 13:15 32.698669 -117.204852 28 33ft 0kts
11-Jul-18 13:16 32.698669 -117.204852 28 33ft 0kts
11-Jul-18 13:17 32.698712 -117.204844 4 33ft 1kts
11-Jul-18 13:18 32.698353 -117.207730 254 33ft 15kts
11-Jul-18 13:19 32.698655 -117.210700 301 33ft 12kts
11-Jul-18 13:20 32.700707 -117.213213 14 33ft 9kts
11-Jul-18 13:21 32.704363 -117.212031 16 33ft 17kts
11-Jul-18 13:22 32.709013 -117.210602 333 33ft 9kts
11-Jul-18 13:23 32.709147 -117.210974 285 33ft 0kts
11-Jul-18 13:24 32.709147 -117.210974 285 33ft 0kts
11-Jul-18 13:25 32.709526 -117.211801 231 33ft 2kts
11-Jul-18 13:26 32.703751 -117.213670 194 33ft 108kts
11-Jul-18 13:27 32.665146 -117.225450 194 2020ft 164kts
11-Jul-18 13:28 32.613497 -117.240468 194 3037ft 210kts
11-Jul-18 13:29 32.586817 -117.291076 295 4959ft 227kts
11-Jul-18 13:30 32.646554 -117.300254 26 6056ft 254kts
11-Jul-18 13:31 32.711181 -117.264024 25 6001ft 255kts
11-Jul-18 13:32 32.776101 -117.232387 5 6005ft 252kts
11-Jul-18 13:33 32.843965 -117.251042 342 6014ft 251kts
11-Jul-18 13:34 32.909861 -117.278551 340 6012ft 253kts
11-Jul-18 13:35 32.978626 -117.307550 341 6002ft 265kts
11-Jul-18 13:36 33.048325 -117.336793 341 5955ft 268kts
11-Jul-18 13:37 33.115851 -117.365153 340 7868ft 259kts
11-Jul-18 13:38 33.186187 -117.394737 340 7991ft 273kts
11-Jul-18 13:39 33.254090 -117.433109 318 7986ft 268kts
11-Jul-18 13:40 33.307867 -117.495821 315 8001ft 274kts
11-Jul-18 13:41 33.362531 -117.559846 315 7996ft 273kts
11-Jul-18 13:42 33.414916 -117.621129 316 9490ft 257kts
11-Jul-18 13:43 33.469982 -117.685589 317 9985ft 301kts
11-Jul-18 13:44 33.532598 -117.758890 316 9985ft 321kts
11-Jul-18 13:45 33.595551 -117.833152 316 10808ft 303kts
11-Jul-18 13:46 33.652802 -117.900880 317 12468ft 286kts
11-Jul-18 13:47 33.708619 -117.966617 317 13633ft 288kts
11-Jul-18 13:48 33.768333 -118.036908 317 13954ft 314kts
11-Jul-18 13:49 33.844616 -118.090663 337 13991ft 325kts
11-Jul-18 13:50 33.928078 -118.137781 336 13985ft 333kts
11-Jul-18 13:51 34.011530 -118.186024 336 13983ft 333kts
11-Jul-18 13:52 34.095152 -118.234334 336 13982ft 333kts
11-Jul-18 13:53 34.179187 -118.280999 346 13991ft 328kts
11-Jul-18 13:54 34.265653 -118.257921 23 13999ft 325kts
11-Jul-18 13:55 34.348510 -118.213812 24 13997ft 325kts
11-Jul-18 13:56 34.432194 -118.169403 24 12655ft 326kts
11-Jul-18 13:57 34.513447 -118.126506 24 10957ft 304kts
11-Jul-18 13:58 34.582671 -118.089853 24 9498ft 257kts
11-Jul-18 13:59 34.649197 -118.053806 26 8095ft 264kts
11-Jul-18 14:00 34.713203 -118.015934 30 7260ft 258kts
11-Jul-18 14:01 34.771477 -117.974340 30 5991ft 224kts
11-Jul-18 14:02 34.823449 -117.937943 33 4767ft 206kts
11-Jul-18 14:03 34.867079 -117.901438 46 4268ft 177kts
11-Jul-18 14:04 34.893301 -117.852974 60 3833ft 166kts
11-Jul-18 14:05 34.921907 -117.830689 293 3064ft 136kts
11-Jul-18 14:06 34.912742 -117.873051 237 3826ft 163kts
11-Jul-18 14:07 34.882904 -117.913010 168 4234ft 165kts
11-Jul-18 14:08 34.883332 -117.864527 56 4110ft 172kts
11-Jul-18 14:09 34.914170 -117.826293 350 3367ft 154kts
11-Jul-18 14:10 34.925466 -117.859949 237 2537ft 123kts
11-Jul-18 14:11 34.912625 -117.885468 238 2309ft 36kts
11-Jul-18 14:12 34.913889 -117.890172 331 2309ft 15kts
11-Jul-18 14:13 34.916889 -117.890847 23 2309ft 11kts
11-Jul-18 14:14 34.917921 -117.891290 230 2309ft 0kts
11-Jul-18 14:15 34.917921 -117.891290 230 2309ft 0kts
11-Jul-18 14:16 34.917921 -117.891290 230 2309ft 0kts
11-Jul-18 14:17 34.917921 -117.891290 230 2309ft 0kts
11-Jul-18 14:18 34.917921 -117.891290 230 2309ft 0kts
11-Jul-18 14:19 34.917921 -117.891290 230 2309ft 0kts
11-Jul-18 14:20 34.917921 -117.891290 230 2309ft 0kts
11-Jul-18 14:21 34.917921 -117.891290 230 2309ft 0kts
11-Jul-18 14:22 34.917921 -117.891290 230 2309ft 0kts
11-Jul-18 14:23 34.917921 -117.891290 230 2309ft 0kts
11-Jul-18 14:24 34.917921 -117.891290 230 2309ft 0kts
11-Jul-18 14:25 34.917921 -117.891290 230 2309ft 0kts

Navigation Log

Ident Type
Flight plan parsing failed, navigation log unavailable